createdAt,value
2022-09-12T00:00:06.905Z,16.37
2022-09-12T00:02:34.791Z,16.32
2022-09-12T00:05:02.719Z,16.27
2022-09-12T00:07:30.794Z,16.22
2022-09-12T00:10:00.196Z,16.24
2022-09-12T00:12:28.164Z,16.25
2022-09-12T00:14:56.243Z,16.22
2022-09-12T00:17:24.104Z,16.19
2022-09-12T00:19:52.688Z,16.20
2022-09-12T00:22:20.764Z,16.14
2022-09-12T00:24:48.661Z,16.13
2022-09-12T00:27:17.951Z,16.12
2022-09-12T00:29:46.006Z,16.05
2022-09-12T00:32:13.965Z,16.00
2022-09-12T00:34:41.907Z,15.99
2022-09-12T00:37:09.922Z,15.97
2022-09-12T00:39:37.923Z,15.98
2022-09-12T00:42:05.967Z,15.98
2022-09-12T00:44:51.461Z,15.96
2022-09-12T00:47:24.975Z,15.89
2022-09-12T00:49:56.685Z,15.92
2022-09-12T00:52:30.604Z,15.90
2022-09-12T00:55:03.967Z,15.89
2022-09-12T00:57:37.183Z,15.85
2022-09-12T01:00:13.820Z,15.79
2022-09-12T01:02:42.506Z,15.72
2022-09-12T01:05:11.457Z,15.70
2022-09-12T01:07:41.014Z,15.72
2022-09-12T01:10:10.854Z,15.76
2022-09-12T01:12:41.567Z,15.76
2022-09-12T01:15:11.522Z,15.74
2022-09-12T01:17:53.200Z,15.70
2022-09-12T01:20:50.772Z,15.64
2022-09-12T01:24:04.297Z,15.52
2022-09-12T01:27:09.484Z,15.45
2022-09-12T01:29:58.016Z,15.48
2022-09-12T01:32:38.408Z,15.43
2022-09-12T01:35:16.728Z,15.42
2022-09-12T01:37:54.288Z,15.47
2022-09-12T01:40:26.233Z,15.45
2022-09-12T01:43:01.472Z,15.41
2022-09-12T01:45:34.970Z,15.37
2022-09-12T01:48:09.103Z,15.41
2022-09-12T01:50:45.061Z,15.43
2022-09-12T01:53:17.751Z,15.42
2022-09-12T01:55:51.576Z,15.44
2022-09-12T01:58:23.793Z,15.39
2022-09-12T02:00:57.382Z,15.40
2022-09-12T02:03:32.079Z,15.42
2022-09-12T02:06:05.003Z,15.41
2022-09-12T02:08:36.665Z,15.38
2022-09-12T02:11:09.103Z,15.25
2022-09-12T02:13:40.412Z,15.25
2022-09-12T02:16:12.144Z,15.23
2022-09-12T02:18:48.299Z,15.17
2022-09-12T02:21:19.658Z,15.19
2022-09-12T02:23:51.707Z,15.15
2022-09-12T02:26:24.912Z,15.10
2022-09-12T02:28:52.852Z,15.06
2022-09-12T02:31:26.558Z,15.00
2022-09-12T02:34:12.163Z,15.06
2022-09-12T02:36:47.720Z,15.06
2022-09-12T02:39:19.991Z,15.05
2022-09-12T02:41:48.504Z,14.93
2022-09-12T02:44:16.485Z,14.95
2022-09-12T02:46:48.818Z,14.96
2022-09-12T02:49:19.101Z,15.01
2022-09-12T02:51:47.812Z,15.01
2022-09-12T02:54:18.114Z,15.01
2022-09-12T02:56:47.195Z,14.92
2022-09-12T02:59:19.299Z,14.88
2022-09-12T03:02:15.035Z,14.87
2022-09-12T03:05:08.182Z,14.84
2022-09-12T03:07:51.754Z,14.83
2022-09-12T03:10:28.832Z,14.82
2022-09-12T03:13:08.677Z,14.84
2022-09-12T03:15:46.525Z,14.84
2022-09-12T03:18:30.937Z,14.83
2022-09-12T03:21:05.925Z,14.80
2022-09-12T03:23:39.641Z,14.80
2022-09-12T03:26:14.426Z,14.78
2022-09-12T03:28:45.468Z,14.80
2022-09-12T03:31:15.558Z,14.80
2022-09-12T03:33:43.734Z,14.79
2022-09-12T03:36:18.669Z,14.84
2022-09-12T03:38:46.740Z,14.87
2022-09-12T03:41:14.777Z,14.81
2022-09-12T03:43:42.988Z,14.76
2022-09-12T03:46:10.884Z,14.77
2022-09-12T03:48:39.646Z,14.80
2022-09-12T03:51:09.947Z,14.82
2022-09-12T03:53:39.170Z,14.80
2022-09-12T03:56:08.186Z,14.80
2022-09-12T03:58:36.818Z,14.82
2022-09-12T04:01:12.260Z,14.84
2022-09-12T04:03:41.289Z,14.77
2022-09-12T04:06:10.812Z,14.76
2022-09-12T04:08:40.087Z,14.76
2022-09-12T04:11:10.532Z,14.73
2022-09-12T04:13:41.089Z,14.70
2022-09-12T04:16:11.046Z,14.72
2022-09-12T04:18:39.770Z,14.71
2022-09-12T04:21:08.898Z,14.71
2022-09-12T04:23:37.259Z,14.72
2022-09-12T04:26:07.516Z,14.71
2022-09-12T04:28:36.656Z,14.73
2022-09-12T04:31:06.233Z,14.71
2022-09-12T04:33:34.233Z,14.72
2022-09-12T04:36:06.934Z,14.63
2022-09-12T04:38:36.375Z,14.63
2022-09-12T04:41:13.625Z,14.66
2022-09-12T04:43:41.764Z,14.55
2022-09-12T04:46:12.672Z,14.54
2022-09-12T04:48:40.592Z,14.57
2022-09-12T04:51:10.034Z,14.54
2022-09-12T04:53:39.120Z,14.52
2022-09-12T04:56:08.710Z,14.49
2022-09-12T04:58:39.257Z,14.51
2022-09-12T05:01:08.166Z,14.53
2022-09-12T05:03:39.097Z,14.54
2022-09-12T05:06:09.109Z,14.59
2022-09-12T05:08:37.349Z,14.58
2022-09-12T05:11:06.256Z,14.57
2022-09-12T05:13:35.617Z,14.54
2022-09-12T05:16:07.188Z,14.48
2022-09-12T05:18:36.181Z,14.39
2022-09-12T05:21:08.209Z,14.38
2022-09-12T05:23:36.385Z,14.44
2022-09-12T05:26:06.186Z,14.49
2022-09-12T05:28:35.926Z,14.55
2022-09-12T05:31:07.362Z,14.61
2022-09-12T05:33:36.171Z,14.66
2022-09-12T05:36:04.890Z,14.67
2022-09-12T05:38:33.851Z,14.71
2022-09-12T05:41:06.315Z,14.76
2022-09-12T05:43:35.905Z,14.75
2022-09-12T05:46:08.972Z,14.80
2022-09-12T05:48:36.938Z,14.85
2022-09-12T05:51:08.998Z,14.92
2022-09-12T05:53:37.592Z,14.94
2022-09-12T05:56:10.946Z,14.98
2022-09-12T05:58:41.567Z,15.05
2022-09-12T06:01:12.635Z,15.14
2022-09-12T06:03:42.814Z,15.14
2022-09-12T06:06:13.759Z,15.21
2022-09-12T06:08:43.253Z,15.25
2022-09-12T06:11:14.932Z,15.28
2022-09-12T06:13:43.941Z,15.29
2022-09-12T06:16:16.221Z,15.34
2022-09-12T06:18:49.030Z,15.35
2022-09-12T06:21:17.802Z,15.43
2022-09-12T06:23:47.108Z,15.49
2022-09-12T06:26:16.732Z,15.56
2022-09-12T06:28:46.281Z,15.56
2022-09-12T06:31:17.247Z,15.65
2022-09-12T06:33:47.956Z,15.73
2022-09-12T06:36:17.959Z,15.82
2022-09-12T06:38:47.867Z,15.86
2022-09-12T06:41:17.039Z,15.94
2022-09-12T06:43:45.107Z,16.00
2022-09-12T06:46:13.808Z,16.06
2022-09-12T06:48:43.501Z,16.15
2022-09-12T06:51:13.511Z,16.24
2022-09-12T06:53:42.411Z,16.36
2022-09-12T06:56:13.006Z,16.45
2022-09-12T06:58:44.743Z,16.58
2022-09-12T07:01:15.198Z,16.67
2022-09-12T07:03:48.321Z,16.75
2022-09-12T07:06:18.217Z,16.83
2022-09-12T07:08:46.776Z,16.90
2022-09-12T07:11:17.499Z,17.02
2022-09-12T07:13:47.064Z,17.18
2022-09-12T07:16:19.396Z,17.22
2022-09-12T07:18:54.252Z,17.35
2022-09-12T07:21:22.708Z,17.51
2022-09-12T07:23:51.897Z,18.26
2022-09-12T07:26:20.260Z,20.11
2022-09-12T07:28:52.206Z,21.92
2022-09-12T07:31:20.834Z,23.49
2022-09-12T07:33:54.348Z,24.75
2022-09-12T07:36:26.216Z,25.66
2022-09-12T07:38:59.221Z,26.38
2022-09-12T07:41:28.737Z,26.75
2022-09-12T07:43:58.265Z,27.45
2022-09-12T07:46:27.377Z,27.97
2022-09-12T07:48:57.369Z,27.66
2022-09-12T07:51:27.804Z,28.18
2022-09-12T07:53:56.610Z,28.93
2022-09-12T07:56:29.692Z,29.20
2022-09-12T07:58:58.973Z,29.41
2022-09-12T08:01:27.500Z,29.30
2022-09-12T08:03:57.218Z,29.09
2022-09-12T08:06:28.075Z,29.64
2022-09-12T08:08:57.421Z,29.91
2022-09-12T08:11:27.953Z,29.88
2022-09-12T08:13:57.704Z,29.61
2022-09-12T08:16:27.699Z,29.64
2022-09-12T08:18:55.839Z,29.95
2022-09-12T08:21:26.003Z,30.41
2022-09-12T08:23:56.732Z,30.67
2022-09-12T08:26:25.148Z,30.94
2022-09-12T08:28:54.128Z,31.16
2022-09-12T08:31:24.217Z,30.92
2022-09-12T08:33:52.665Z,30.85
2022-09-12T08:36:22.696Z,30.62
2022-09-12T08:38:54.397Z,30.32
2022-09-12T08:41:30.928Z,30.03
2022-09-12T08:44:20.254Z,29.51
2022-09-12T08:46:59.225Z,29.24
2022-09-12T08:49:31.547Z,29.09
2022-09-12T08:52:03.771Z,28.80
2022-09-12T08:54:32.839Z,29.06
2022-09-12T08:57:05.544Z,29.15
2022-09-12T08:59:39.202Z,29.45
2022-09-12T09:02:29.766Z,28.77
2022-09-12T09:05:08.381Z,28.39
2022-09-12T09:08:00.563Z,28.08
2022-09-12T09:10:38.281Z,27.85
2022-09-12T09:13:36.358Z,27.73
2022-09-12T09:16:12.706Z,27.52
2022-09-12T09:18:42.514Z,27.52
2022-09-12T09:21:20.302Z,27.34
2022-09-12T09:23:51.810Z,27.42
2022-09-12T09:26:26.785Z,27.45
2022-09-12T09:29:00.503Z,27.23
2022-09-12T09:31:34.196Z,27.01
2022-09-12T09:34:02.241Z,26.42
2022-09-12T09:36:44.217Z,25.86
2022-09-12T09:39:24.207Z,25.14
2022-09-12T09:42:03.234Z,25.36
2022-09-12T09:44:32.808Z,25.25
2022-09-12T09:47:01.966Z,25.25
2022-09-12T09:49:32.651Z,25.22
2022-09-12T09:52:01.921Z,25.03
2022-09-12T09:54:35.664Z,24.95
2022-09-12T09:57:05.126Z,24.94
2022-09-12T09:59:35.215Z,24.89
2022-09-12T10:02:24.174Z,24.94
2022-09-12T10:04:55.985Z,24.95
2022-09-12T10:07:24.826Z,24.94
2022-09-12T10:10:07.704Z,24.77
2022-09-12T10:12:35.652Z,24.69
2022-09-12T10:15:19.197Z,24.72
2022-09-12T10:17:49.578Z,25.00
2022-09-12T10:20:32.305Z,25.18
2022-09-12T10:23:02.104Z,24.99
2022-09-12T10:25:30.430Z,25.01
2022-09-12T10:28:00.549Z,24.72
2022-09-12T10:30:30.166Z,24.68
2022-09-12T10:33:10.008Z,24.85
2022-09-12T10:35:46.693Z,24.96
2022-09-12T10:38:22.238Z,25.06
2022-09-12T10:40:59.419Z,25.21
2022-09-12T10:43:31.003Z,25.05
2022-09-12T10:46:21.093Z,25.08
2022-09-12T10:48:50.213Z,25.09
2022-09-12T10:51:28.755Z,25.17
2022-09-12T10:53:59.349Z,25.04
2022-09-12T10:56:32.758Z,25.10
2022-09-12T10:59:11.821Z,25.05
2022-09-12T11:01:44.461Z,25.22
2022-09-12T11:04:37.350Z,25.31
2022-09-12T11:07:23.755Z,25.27
2022-09-12T11:10:01.724Z,24.92
2022-09-12T11:12:42.475Z,24.81
2022-09-12T11:15:29.208Z,24.97
2022-09-12T11:18:04.232Z,24.93
2022-09-12T11:20:52.356Z,24.95
2022-09-12T11:23:47.061Z,24.83
2022-09-12T11:26:30.984Z,24.88
2022-09-12T11:29:11.201Z,24.94
2022-09-12T11:31:56.483Z,25.00
2022-09-12T11:34:38.448Z,24.89
2022-09-12T11:37:26.311Z,24.90
2022-09-12T11:39:58.252Z,24.79
2022-09-12T11:42:34.303Z,24.98
2022-09-12T11:45:11.128Z,24.92
2022-09-12T11:47:39.812Z,24.88
2022-09-12T11:50:20.507Z,24.95
2022-09-12T11:52:48.386Z,24.94
2022-09-12T11:55:20.673Z,24.95
2022-09-12T11:57:54.117Z,24.90
2022-09-12T12:00:26.700Z,25.00
2022-09-12T12:03:03.900Z,25.00
2022-09-12T12:05:38.805Z,25.00
2022-09-12T12:08:09.286Z,25.02
2022-09-12T12:10:40.376Z,25.00
2022-09-12T12:13:18.029Z,24.93
2022-09-12T12:15:48.572Z,25.01
2022-09-12T12:18:19.998Z,25.11
2022-09-12T12:20:51.045Z,25.17
2022-09-12T12:23:30.318Z,25.01
2022-09-12T12:26:00.212Z,25.22
2022-09-12T12:29:00.171Z,25.28
2022-09-12T12:31:28.359Z,25.20
2022-09-12T12:34:04.510Z,25.09
2022-09-12T12:36:43.212Z,25.04
2022-09-12T12:39:46.979Z,24.92
2022-09-12T12:43:07.734Z,24.87
2022-09-12T12:46:10.264Z,24.74
2022-09-12T12:48:58.176Z,24.76
2022-09-12T12:51:57.705Z,25.04
2022-09-12T12:54:32.488Z,25.15
2022-09-12T12:57:20.765Z,25.27
2022-09-12T12:59:53.017Z,25.31
2022-09-12T13:02:25.204Z,25.30
2022-09-12T13:04:54.630Z,25.30
2022-09-12T13:07:30.040Z,25.22
2022-09-12T13:10:00.495Z,25.28
2022-09-12T13:12:32.474Z,25.26
2022-09-12T13:15:02.124Z,25.33
2022-09-12T13:17:35.695Z,25.41
2022-09-12T13:20:27.273Z,25.36
2022-09-12T13:22:58.859Z,25.37
2022-09-12T13:25:30.303Z,25.30
2022-09-12T13:28:04.212Z,25.28
2022-09-12T13:30:34.635Z,25.27
2022-09-12T13:33:19.352Z,25.29
2022-09-12T13:36:23.027Z,25.35
2022-09-12T13:39:14.534Z,25.27
2022-09-12T13:42:23.581Z,25.31
2022-09-12T13:44:54.306Z,25.23
2022-09-12T13:47:27.951Z,25.21
2022-09-12T13:49:56.994Z,25.26
2022-09-12T13:52:29.177Z,25.18
2022-09-12T13:55:01.442Z,25.04
2022-09-12T13:57:32.310Z,25.06
2022-09-12T14:00:02.084Z,24.95
2022-09-12T14:02:31.487Z,25.02
2022-09-12T14:05:10.673Z,25.07
2022-09-12T14:07:55.175Z,24.97
2022-09-12T14:10:32.067Z,24.84
2022-09-12T14:13:03.077Z,24.97
2022-09-12T14:15:33.502Z,24.89
2022-09-12T14:18:03.419Z,24.91
2022-09-12T14:20:33.882Z,24.93
2022-09-12T14:23:04.124Z,24.98
2022-09-12T14:25:41.487Z,25.08
2022-09-12T14:28:14.679Z,25.21
2022-09-12T14:30:42.803Z,25.20
2022-09-12T14:33:22.160Z,25.20
2022-09-12T14:35:52.756Z,25.05
2022-09-12T14:38:31.755Z,25.01
2022-09-12T14:41:07.035Z,24.92
2022-09-12T14:43:37.692Z,24.89
2022-09-12T14:46:08.618Z,24.90
2022-09-12T14:48:44.109Z,24.73
2022-09-12T14:51:22.532Z,24.62
2022-09-12T14:53:51.011Z,24.65
2022-09-12T14:56:23.455Z,24.52
2022-09-12T14:58:51.794Z,24.48
2022-09-12T15:01:25.695Z,24.46
2022-09-12T15:03:56.629Z,24.48
2022-09-12T15:06:29.313Z,24.40
2022-09-12T15:09:00.640Z,24.25
2022-09-12T15:11:30.209Z,24.19
2022-09-12T15:13:58.031Z,24.10
2022-09-12T15:16:25.934Z,23.95
2022-09-12T15:18:53.960Z,23.88
2022-09-12T15:21:22.487Z,23.83
2022-09-12T15:23:51.838Z,23.88
2022-09-12T15:26:21.892Z,23.87
2022-09-12T15:28:52.079Z,24.05
2022-09-12T15:31:25.697Z,24.32
2022-09-12T15:33:54.011Z,24.73
2022-09-12T15:36:24.069Z,24.72
2022-09-12T15:38:53.229Z,24.65
2022-09-12T15:41:23.408Z,24.55
2022-09-12T15:43:52.871Z,24.52
2022-09-12T15:46:21.769Z,24.32
2022-09-12T15:48:50.187Z,24.41
2022-09-12T15:51:19.961Z,24.47
2022-09-12T15:53:49.011Z,24.50
2022-09-12T15:56:18.380Z,24.51
2022-09-12T15:58:58.091Z,24.35
2022-09-12T16:01:29.641Z,24.28
2022-09-12T16:03:58.311Z,24.29
2022-09-12T16:06:27.933Z,24.23
2022-09-12T16:08:55.922Z,24.10
2022-09-12T16:11:25.977Z,24.12
2022-09-12T16:13:55.004Z,24.08
2022-09-12T16:16:23.103Z,24.00
2022-09-12T16:18:52.660Z,23.96
2022-09-12T16:21:20.569Z,23.95
2022-09-12T16:23:49.659Z,23.93
2022-09-12T16:26:18.778Z,23.85
2022-09-12T16:28:46.925Z,23.86
2022-09-12T16:31:15.482Z,23.79
2022-09-12T16:33:43.538Z,23.68
2022-09-12T16:36:15.414Z,23.60
2022-09-12T16:38:44.720Z,23.43
2022-09-12T16:41:13.629Z,23.36
2022-09-12T16:43:43.005Z,23.33
2022-09-12T16:46:12.953Z,23.23
2022-09-12T16:48:45.097Z,23.20
2022-09-12T16:51:20.279Z,23.09
2022-09-12T16:53:48.255Z,23.07
2022-09-12T16:56:16.700Z,23.01
2022-09-12T16:58:45.415Z,22.98
2022-09-12T17:01:16.033Z,22.95
2022-09-12T17:03:44.195Z,22.90
2022-09-12T17:06:13.943Z,22.88
2022-09-12T17:08:45.500Z,22.81
2022-09-12T17:11:15.108Z,22.77
2022-09-12T17:14:04.036Z,22.76
2022-09-12T17:16:34.144Z,22.69
2022-09-12T17:19:02.138Z,22.67
2022-09-12T17:21:30.157Z,22.68
2022-09-12T17:24:00.218Z,22.66
2022-09-12T17:26:28.544Z,22.61
2022-09-12T17:28:56.450Z,22.64
2022-09-12T17:31:24.410Z,22.62
2022-09-12T17:33:57.405Z,22.65
2022-09-12T17:36:26.021Z,22.53
2022-09-12T17:38:54.270Z,22.53
2022-09-12T17:41:25.473Z,22.55
2022-09-12T17:43:55.676Z,22.48
2022-09-12T17:46:25.095Z,22.45
2022-09-12T17:48:54.351Z,22.36
2022-09-12T17:51:24.981Z,22.34
2022-09-12T17:53:59.107Z,22.36
2022-09-12T17:56:30.898Z,22.33
2022-09-12T17:58:59.754Z,22.30
2022-09-12T18:01:47.032Z,22.31
2022-09-12T18:04:15.170Z,22.27
2022-09-12T18:06:48.123Z,22.24
2022-09-12T18:09:18.012Z,22.23
2022-09-12T18:11:48.052Z,22.21
2022-09-12T18:14:17.283Z,22.16
2022-09-12T18:16:45.751Z,22.15
2022-09-12T18:19:14.093Z,22.10
2022-09-12T18:21:42.367Z,22.08
2022-09-12T18:24:11.193Z,22.07
2022-09-12T18:26:39.310Z,22.04
2022-09-12T18:29:08.578Z,22.00
2022-09-12T18:31:37.125Z,21.95
2022-09-12T18:34:06.366Z,21.93
2022-09-12T18:36:34.286Z,21.90
2022-09-12T18:39:02.145Z,21.85
2022-09-12T18:41:30.147Z,21.82
2022-09-12T18:43:58.980Z,21.78
2022-09-12T18:46:30.374Z,21.75
2022-09-12T18:48:59.071Z,21.77
2022-09-12T18:51:31.674Z,21.71
2022-09-12T18:54:01.151Z,21.71
2022-09-12T18:56:32.992Z,21.73
2022-09-12T18:59:01.927Z,21.71
2022-09-12T19:01:33.307Z,21.64
2022-09-12T19:04:04.691Z,21.68
2022-09-12T19:06:34.795Z,21.63
2022-09-12T19:09:07.512Z,21.61
2022-09-12T19:11:37.494Z,21.61
2022-09-12T19:14:06.470Z,21.58
2022-09-12T19:16:36.150Z,21.52
2022-09-12T19:19:04.670Z,21.45
2022-09-12T19:21:34.344Z,21.39
2022-09-12T19:24:06.943Z,21.32
2022-09-12T19:26:35.912Z,21.26
2022-09-12T19:29:04.064Z,21.20
2022-09-12T19:31:32.888Z,21.16
2022-09-12T19:34:03.118Z,21.11
2022-09-12T19:36:44.864Z,21.08
2022-09-12T19:39:14.081Z,21.07
2022-09-12T19:41:42.548Z,21.03
2022-09-12T19:44:11.515Z,20.99
2022-09-12T19:46:40.517Z,20.92
2022-09-12T19:49:14.142Z,20.94
2022-09-12T19:51:42.351Z,20.86
2022-09-12T19:54:10.699Z,20.80
2022-09-12T19:56:38.647Z,20.78
2022-09-12T19:59:06.934Z,20.77
2022-09-12T20:01:37.051Z,20.72
2022-09-12T20:04:05.626Z,20.65
2022-09-12T20:10:16.170Z,20.54
2022-09-12T20:12:44.806Z,20.49
2022-09-12T20:15:13.378Z,20.48
2022-09-12T20:17:41.661Z,20.43
2022-09-12T20:20:10.390Z,20.42
2022-09-12T20:22:40.185Z,20.41
2022-09-12T20:25:09.482Z,20.34
2022-09-12T20:27:38.921Z,20.31
2022-09-12T20:30:08.523Z,20.31
2022-09-12T20:32:36.699Z,20.27
2022-09-12T20:35:05.265Z,20.21
2022-09-12T20:37:33.340Z,20.16
2022-09-12T20:40:01.620Z,20.18
2022-09-12T20:42:30.163Z,20.13
2022-09-12T20:44:59.608Z,20.09
2022-09-12T20:47:27.802Z,20.07
2022-09-12T20:49:55.836Z,19.95
2022-09-12T20:52:23.901Z,19.90
2022-09-12T20:54:52.125Z,19.87
2022-09-12T20:57:20.174Z,19.88
2022-09-12T20:59:48.209Z,19.81
2022-09-12T21:02:18.434Z,19.80
2022-09-12T21:04:46.640Z,19.72
2022-09-12T21:07:14.832Z,19.70
2022-09-12T21:09:43.107Z,19.67
2022-09-12T21:12:11.209Z,19.62
2022-09-12T21:14:39.233Z,19.63
2022-09-12T21:17:07.581Z,19.61
2022-09-12T21:19:37.016Z,19.59
2022-09-12T21:22:05.110Z,19.57
2022-09-12T21:24:33.369Z,19.50
2022-09-12T21:27:04.427Z,19.45
2022-09-12T21:29:32.814Z,19.49
2022-09-12T21:32:00.933Z,19.54
2022-09-12T21:34:28.974Z,19.58
2022-09-12T21:36:58.572Z,19.52
2022-09-12T21:39:26.644Z,19.46
2022-09-12T21:41:54.693Z,19.48
2022-09-12T21:44:22.892Z,19.47
2022-09-12T21:46:50.997Z,19.54
2022-09-12T21:49:19.093Z,19.54
2022-09-12T21:51:47.323Z,19.58
2022-09-12T21:54:16.789Z,19.57
2022-09-12T21:56:44.867Z,19.62
2022-09-12T21:59:13.041Z,19.67
2022-09-12T22:01:41.311Z,19.69
2022-09-12T22:04:11.142Z,19.65
2022-09-12T22:06:39.201Z,19.63
2022-09-12T22:09:07.623Z,19.61
2022-09-12T22:11:37.236Z,19.56
2022-09-12T22:14:05.301Z,19.52
2022-09-12T22:16:33.960Z,19.50
2022-09-12T22:19:02.224Z,19.52
2022-09-12T22:21:30.947Z,19.43
2022-09-12T22:24:16.847Z,19.42
2022-09-12T22:26:47.368Z,19.42
2022-09-12T22:29:15.208Z,19.41
2022-09-12T22:31:43.438Z,19.37
2022-09-12T22:34:11.386Z,19.36
2022-09-12T22:36:39.376Z,19.35
2022-09-12T22:39:07.589Z,19.33
2022-09-12T22:41:35.495Z,19.36
2022-09-12T22:44:04.872Z,19.34
2022-09-12T22:46:33.573Z,19.34
2022-09-12T22:49:01.596Z,19.34
2022-09-12T22:51:29.496Z,19.33
2022-09-12T22:53:57.599Z,19.33
2022-09-12T22:56:25.909Z,19.35
2022-09-12T22:58:53.978Z,19.31
2022-09-12T23:01:24.164Z,19.33
2022-09-12T23:03:52.169Z,19.34
2022-09-12T23:06:20.083Z,19.35
2022-09-12T23:08:48.113Z,19.34
2022-09-12T23:11:17.954Z,19.29
2022-09-12T23:13:47.335Z,19.30
2022-09-12T23:16:17.878Z,19.32
2022-09-12T23:18:47.350Z,19.32
2022-09-12T23:21:17.215Z,19.32
2022-09-12T23:23:45.484Z,19.32
2022-09-12T23:26:15.557Z,19.34
2022-09-12T23:28:48.928Z,19.40
2022-09-12T23:31:17.552Z,19.37
2022-09-12T23:33:45.742Z,19.32
2022-09-12T23:36:15.395Z,19.30
2022-09-12T23:38:45.082Z,19.30
2022-09-12T23:41:14.281Z,19.29
2022-09-12T23:43:43.036Z,19.28
2022-09-12T23:46:11.031Z,19.21
2022-09-12T23:48:38.863Z,19.15
2022-09-12T23:51:07.262Z,19.20
2022-09-12T23:53:36.695Z,19.17
2022-09-12T23:56:05.319Z,19.20
2022-09-12T23:58:33.374Z,19.20
